createdAt,value
2023-03-12T00:02:22.640Z,25.53
2023-03-12T00:07:34.841Z,25.43
2023-03-12T00:12:42.220Z,25.29
2023-03-12T00:17:49.660Z,25.13
2023-03-12T00:22:57.139Z,25.04
2023-03-12T00:28:04.447Z,24.84
2023-03-12T00:33:11.796Z,24.66
2023-03-12T00:38:19.274Z,24.54
2023-03-12T00:43:26.733Z,24.38
2023-03-12T00:48:34.302Z,24.18
2023-03-12T00:53:41.694Z,24.03
2023-03-12T00:58:49.073Z,23.92
2023-03-12T01:03:56.529Z,23.81
2023-03-12T01:09:03.926Z,23.70
2023-03-12T01:14:11.303Z,23.54
2023-03-12T01:19:18.683Z,23.31
2023-03-12T01:24:26.077Z,23.13
2023-03-12T01:29:33.410Z,22.84
2023-03-12T01:34:40.668Z,22.67
2023-03-12T01:39:47.942Z,22.44
2023-03-12T01:44:55.377Z,22.22
2023-03-12T01:50:02.637Z,21.97
2023-03-12T01:55:09.821Z,21.75
2023-03-12T02:00:16.997Z,21.57
2023-03-12T02:05:24.269Z,21.49
2023-03-12T02:10:31.483Z,21.20
2023-03-12T02:15:38.658Z,21.02
2023-03-12T02:20:45.971Z,20.92
2023-03-12T02:25:53.387Z,20.79
2023-03-12T02:31:00.666Z,20.68
2023-03-12T02:36:08.162Z,20.55
2023-03-12T02:41:15.505Z,20.45
2023-03-12T02:46:22.941Z,20.33
2023-03-12T02:51:30.215Z,20.31
2023-03-12T02:56:37.544Z,20.25
2023-03-12T03:01:44.951Z,20.18
2023-03-12T03:06:52.186Z,20.11
2023-03-12T03:11:59.607Z,20.06
2023-03-12T03:17:07.046Z,20.04
2023-03-12T03:22:14.488Z,19.98
2023-03-12T03:27:22.247Z,19.88
2023-03-12T03:32:29.738Z,20.06
2023-03-12T03:37:36.959Z,20.31
2023-03-12T03:42:44.456Z,20.54
2023-03-12T03:47:51.703Z,20.66
2023-03-12T03:52:58.996Z,20.69
2023-03-12T03:58:06.490Z,20.55
2023-03-12T04:03:13.908Z,20.50
2023-03-12T04:08:21.222Z,20.37
2023-03-12T04:13:28.820Z,20.26
2023-03-12T04:18:36.595Z,20.22
2023-03-12T04:23:44.319Z,20.29
2023-03-12T04:28:51.708Z,20.27
2023-03-12T04:33:59.097Z,20.30
2023-03-12T04:39:06.528Z,20.14
2023-03-12T04:44:14.009Z,20.04
2023-03-12T04:49:21.218Z,19.97
2023-03-12T04:54:28.551Z,20.04
2023-03-12T04:59:35.989Z,20.03
2023-03-12T05:04:43.231Z,20.15
2023-03-12T05:09:50.594Z,20.25
2023-03-12T05:14:57.954Z,20.36
2023-03-12T05:20:05.234Z,20.37
2023-03-12T05:25:12.701Z,20.39
2023-03-12T05:30:20.248Z,20.45
2023-03-12T05:35:27.555Z,20.41
2023-03-12T05:40:34.982Z,20.45
2023-03-12T05:45:42.623Z,20.45
2023-03-12T05:50:49.891Z,20.46
2023-03-12T05:55:57.325Z,20.44
2023-03-12T06:01:04.705Z,20.42
2023-03-12T06:06:12.081Z,20.43
2023-03-12T06:11:19.429Z,20.40
2023-03-12T06:16:26.983Z,20.39
2023-03-12T06:21:34.358Z,20.36
2023-03-12T06:26:41.674Z,20.37
2023-03-12T06:31:49.165Z,20.35
2023-03-12T06:36:56.528Z,20.32
2023-03-12T06:42:03.933Z,20.30
2023-03-12T06:47:11.493Z,20.31
2023-03-12T06:52:18.749Z,20.31
2023-03-12T06:57:26.133Z,20.28
2023-03-12T07:02:33.661Z,20.25
2023-03-12T07:07:40.882Z,20.22
2023-03-12T07:12:48.302Z,20.24
2023-03-12T07:17:55.748Z,20.21
2023-03-12T07:23:06.008Z,20.21
2023-03-12T07:28:11.312Z,20.18
2023-03-12T07:33:18.868Z,20.15
2023-03-12T07:38:26.140Z,20.14
2023-03-12T07:43:33.521Z,20.15
2023-03-12T07:48:44.004Z,20.13
2023-03-12T07:53:48.248Z,20.06
2023-03-12T07:58:55.839Z,20.06
2023-03-12T08:04:03.260Z,20.04
2023-03-12T08:09:10.402Z,20.02
2023-03-12T08:14:17.790Z,20.00
2023-03-12T08:19:25.142Z,20.00
2023-03-12T08:24:32.486Z,19.97
2023-03-12T08:29:39.815Z,19.99
2023-03-12T08:34:47.331Z,19.95
2023-03-12T08:39:54.696Z,19.94
2023-03-12T08:45:02.111Z,19.95
2023-03-12T08:50:09.507Z,19.98
2023-03-12T08:55:16.809Z,19.96
2023-03-12T09:00:24.107Z,19.96
2023-03-12T09:05:31.564Z,19.99
2023-03-12T09:10:38.830Z,19.96
2023-03-12T09:15:46.055Z,20.06
2023-03-12T09:20:53.256Z,20.24
2023-03-12T09:26:00.391Z,20.43
2023-03-12T09:31:07.643Z,20.58
2023-03-12T09:36:14.847Z,20.73
2023-03-12T09:41:21.937Z,20.89
2023-03-12T09:46:29.218Z,21.00
2023-03-12T09:51:36.356Z,21.16
2023-03-12T09:56:43.483Z,21.28
2023-03-12T10:01:50.734Z,21.37
2023-03-12T10:06:58.026Z,21.49
2023-03-12T10:12:05.272Z,21.58
2023-03-12T10:17:12.510Z,21.65
2023-03-12T10:22:19.711Z,21.74
2023-03-12T10:27:26.957Z,21.84
2023-03-12T10:32:34.242Z,21.96
2023-03-12T10:37:41.400Z,21.94
2023-03-12T10:42:48.593Z,21.92
2023-03-12T10:47:55.853Z,22.02
2023-03-12T10:53:03.079Z,22.07
2023-03-12T10:58:10.302Z,22.17
2023-03-12T11:03:17.497Z,22.28
2023-03-12T11:08:24.726Z,22.41
2023-03-12T11:13:31.866Z,22.46
2023-03-12T11:18:39.046Z,22.54
2023-03-12T11:23:46.291Z,22.58
2023-03-12T11:28:53.439Z,22.66
2023-03-12T11:34:00.623Z,22.76
2023-03-12T11:39:07.871Z,22.81
2023-03-12T11:44:15.051Z,22.87
2023-03-12T11:49:22.283Z,22.88
2023-03-12T11:54:29.704Z,22.95
2023-03-12T11:59:36.967Z,22.99
2023-03-12T12:04:44.177Z,23.02
2023-03-12T12:09:51.450Z,23.09
2023-03-12T12:14:58.594Z,23.12
2023-03-12T12:20:05.889Z,23.15
2023-03-12T12:25:13.104Z,23.14
2023-03-12T12:30:20.253Z,23.18
2023-03-12T12:35:27.425Z,23.22
2023-03-12T12:40:34.802Z,23.25
2023-03-12T12:45:42.236Z,23.29
2023-03-12T12:50:49.400Z,23.34
2023-03-12T12:55:56.638Z,23.39
2023-03-12T13:01:03.863Z,23.41
2023-03-12T13:06:11.050Z,23.47
2023-03-12T13:11:20.843Z,23.53
2023-03-12T13:16:26.276Z,23.54
2023-03-12T13:21:34.170Z,23.54
2023-03-12T13:26:41.517Z,23.57
2023-03-12T13:31:48.779Z,23.59
2023-03-12T13:36:56.190Z,23.62
2023-03-12T13:42:03.565Z,23.61
2023-03-12T13:47:11.112Z,23.68
2023-03-12T13:52:18.818Z,23.73
2023-03-12T13:57:27.603Z,23.76
2023-03-12T14:02:34.912Z,23.79
2023-03-12T14:07:42.197Z,23.80
2023-03-12T14:12:49.616Z,23.84
2023-03-12T14:17:56.936Z,23.86
2023-03-12T14:23:04.104Z,23.91
2023-03-12T14:28:11.638Z,23.94
2023-03-12T14:33:19.227Z,23.96
2023-03-12T14:38:26.741Z,23.96
2023-03-12T14:43:34.210Z,24.00
2023-03-12T14:48:41.368Z,24.04
2023-03-12T14:53:48.539Z,24.08
2023-03-12T14:58:55.844Z,24.11
2023-03-12T15:04:03.283Z,24.11
2023-03-12T15:09:10.883Z,24.13
2023-03-12T15:14:18.356Z,24.13
2023-03-12T15:19:25.908Z,24.13
2023-03-12T15:24:33.277Z,24.14
2023-03-12T15:29:40.812Z,24.17
2023-03-12T15:34:48.254Z,24.18
2023-03-12T15:39:55.584Z,24.20
2023-03-12T15:45:02.803Z,24.21
2023-03-12T15:50:10.120Z,24.19
2023-03-12T15:55:17.779Z,24.20
2023-03-12T16:00:25.260Z,24.23
2023-03-12T16:05:32.602Z,24.23
2023-03-12T16:10:39.959Z,24.19
2023-03-12T16:15:48.026Z,24.17
2023-03-12T16:20:56.473Z,24.20
2023-03-12T16:26:04.183Z,24.26
2023-03-12T16:31:11.741Z,24.25
2023-03-12T16:36:19.210Z,24.28
2023-03-12T16:41:26.449Z,24.32
2023-03-12T16:46:34.122Z,24.35
2023-03-12T16:51:41.271Z,24.34
2023-03-12T16:56:48.737Z,24.36
2023-03-12T17:01:56.572Z,24.40
2023-03-12T17:07:04.177Z,24.38
2023-03-12T17:12:11.690Z,24.35
2023-03-12T17:17:20.372Z,24.36
2023-03-12T17:22:27.964Z,24.40
2023-03-12T17:27:35.338Z,24.40
2023-03-12T17:32:43.118Z,24.36
2023-03-12T17:37:50.584Z,24.29
2023-03-12T17:42:58.294Z,24.17
2023-03-12T17:48:06.041Z,24.05
2023-03-12T17:53:13.632Z,23.99
2023-03-12T17:58:21.346Z,23.90
2023-03-12T18:03:29.050Z,23.89
2023-03-12T18:08:37.698Z,23.88
2023-03-12T18:13:45.409Z,24.06
2023-03-12T18:18:53.176Z,24.27
2023-03-12T18:24:08.293Z,24.40
2023-03-12T18:29:07.449Z,24.54
2023-03-12T18:34:14.881Z,24.62
2023-03-12T18:39:22.278Z,24.72
2023-03-12T18:44:29.844Z,24.65
2023-03-12T18:49:37.532Z,24.62
2023-03-12T18:54:45.213Z,24.58
2023-03-12T18:59:52.583Z,24.71
2023-03-12T19:05:00.733Z,24.77
2023-03-12T19:10:07.867Z,24.88
2023-03-12T19:15:16.551Z,24.98
2023-03-12T19:20:24.325Z,25.01
2023-03-12T19:25:32.048Z,24.99
2023-03-12T19:30:39.390Z,24.95
2023-03-12T19:35:46.914Z,25.00
2023-03-12T19:40:55.527Z,25.02
2023-03-12T19:46:02.226Z,25.07
2023-03-12T19:51:09.914Z,25.08
2023-03-12T19:56:18.475Z,25.14
2023-03-12T20:01:25.224Z,25.16
2023-03-12T20:06:32.972Z,25.21
2023-03-12T20:11:40.545Z,25.23
2023-03-12T20:16:47.959Z,25.28
2023-03-12T20:21:55.495Z,25.30
2023-03-12T20:27:03.302Z,25.36
2023-03-12T20:32:10.976Z,25.31
2023-03-12T20:37:18.635Z,25.32
2023-03-12T20:42:25.908Z,25.29
2023-03-12T20:47:33.434Z,25.32
2023-03-12T20:52:41.212Z,25.35
2023-03-12T20:57:48.771Z,25.33
2023-03-12T21:02:56.395Z,25.35
2023-03-12T21:08:03.788Z,25.19
2023-03-12T21:13:11.018Z,25.23
2023-03-12T21:18:18.249Z,25.30
2023-03-12T21:23:25.603Z,25.33
2023-03-12T21:28:32.826Z,25.29
2023-03-12T21:33:40.071Z,25.33
2023-03-12T21:38:47.402Z,25.37
2023-03-12T21:43:54.654Z,25.46
2023-03-12T21:49:02.016Z,25.57
2023-03-12T21:54:09.248Z,25.62
2023-03-12T21:59:16.510Z,25.63
2023-03-12T22:04:23.927Z,25.69
2023-03-12T22:09:31.078Z,25.75
2023-03-12T22:14:38.248Z,25.77
2023-03-12T22:19:45.432Z,25.79
2023-03-12T22:24:52.626Z,25.78
2023-03-12T22:29:59.822Z,25.75
2023-03-12T22:35:07.069Z,25.82
2023-03-12T22:40:14.346Z,25.86
2023-03-12T22:45:21.534Z,25.93
2023-03-12T22:50:28.814Z,25.94
2023-03-12T22:55:36.065Z,25.96
2023-03-12T23:00:43.287Z,25.94
2023-03-12T23:05:50.501Z,26.03
2023-03-12T23:10:57.812Z,25.96
2023-03-12T23:16:05.109Z,26.03
2023-03-12T23:21:12.560Z,26.05
2023-03-12T23:26:19.982Z,26.06
2023-03-12T23:31:27.700Z,26.06
2023-03-12T23:36:34.921Z,25.99
2023-03-12T23:41:42.351Z,25.89
2023-03-12T23:46:49.738Z,25.78
2023-03-12T23:51:57.147Z,25.64
2023-03-12T23:57:04.545Z,25.45
